sensor_id;sensor_type;location;lat;lon;timestamp;pressure;altitude;pressure_sealevel;temperature;humidity
41230;BME280;26964;50.428;19.218;2023-02-21T00:00:30;1011.9;;;8.3;72.2
41230;BME280;26964;50.428;19.218;2023-02-21T00:05:29;1012.0;;;8.3;72.3
41230;BME280;26964;50.428;19.218;2023-02-21T00:10:29;1011.9;;;8.2;72.0
41230;BME280;26964;50.428;19.218;2023-02-21T00:15:29;1011.8;;;8.2;72.0
41230;BME280;26964;50.428;19.218;2023-02-21T00:20:30;1011.8;;;8.2;72.3
41230;BME280;26964;50.428;19.218;2023-02-21T00:25:30;1011.9;;;8.2;72.3
41230;BME280;26964;50.428;19.218;2023-02-21T00:30:30;1012.0;;;8.1;72.4
41230;BME280;26964;50.428;19.218;2023-02-21T00:35:30;1011.8;;;8.1;72.5
41230;BME280;26964;50.428;19.218;2023-02-21T00:40:30;1011.8;;;8.0;72.6
41230;BME280;26964;50.428;19.218;2023-02-21T00:45:29;1011.7;;;8.0;72.8
41230;BME280;26964;50.428;19.218;2023-02-21T00:50:29;1011.8;;;7.9;73.0
41230;BME280;26964;50.428;19.218;2023-02-21T00:55:30;1011.7;;;7.8;73.2
41230;BME280;26964;50.428;19.218;2023-02-21T01:00:30;1011.7;;;7.6;73.7
41230;BME280;26964;50.428;19.218;2023-02-21T01:05:30;1011.8;;;7.4;73.9
41230;BME280;26964;50.428;19.218;2023-02-21T01:10:30;1011.7;;;7.2;74.3
41230;BME280;26964;50.428;19.218;2023-02-21T01:15:29;1011.8;;;7.0;75.0
41230;BME280;26964;50.428;19.218;2023-02-21T01:20:30;1011.7;;;6.9;74.9
41230;BME280;26964;50.428;19.218;2023-02-21T01:25:29;1011.5;;;6.8;75.2
41230;BME280;26964;50.428;19.218;2023-02-21T01:30:29;1011.6;;;6.7;75.6
41230;BME280;26964;50.428;19.218;2023-02-21T01:35:41;1011.6;;;6.6;75.5
41230;BME280;26964;50.428;19.218;2023-02-21T01:40:30;1011.4;;;6.5;75.9
41230;BME280;26964;50.428;19.218;2023-02-21T01:50:30;1011.5;;;6.5;76.7
41230;BME280;26964;50.428;19.218;2023-02-21T01:55:29;1011.4;;;6.4;76.7
41230;BME280;26964;50.428;19.218;2023-02-21T02:00:29;1011.3;;;6.4;76.7
41230;BME280;26964;50.428;19.218;2023-02-21T02:05:30;1011.3;;;6.4;76.8
41230;BME280;26964;50.428;19.218;2023-02-21T02:10:29;1011.3;;;6.4;77.1
41230;BME280;26964;50.428;19.218;2023-02-21T02:35:31;1011.3;;;6.4;78.2
41230;BME280;26964;50.428;19.218;2023-02-21T02:40:34;1011.3;;;6.4;78.1
41230;BME280;26964;50.428;19.218;2023-02-21T02:45:34;1011.2;;;6.4;78.2
41230;BME280;26964;50.428;19.218;2023-02-21T02:50:30;1011.2;;;6.4;78.7
41230;BME280;26964;50.428;19.218;2023-02-21T02:55:35;1011.2;;;6.4;78.7
41230;BME280;26964;50.428;19.218;2023-02-21T03:00:30;1011.4;;;6.4;78.7
41230;BME280;26964;50.428;19.218;2023-02-21T03:15:34;1011.2;;;6.4;79.6
41230;BME280;26964;50.428;19.218;2023-02-21T03:20:33;1011.1;;;6.4;79.5
41230;BME280;26964;50.428;19.218;2023-02-21T03:25:33;1011.2;;;6.4;79.4
41230;BME280;26964;50.428;19.218;2023-02-21T03:30:29;1011.2;;;6.5;80.2
41230;BME280;26964;50.428;19.218;2023-02-21T03:35:29;1011.2;;;6.5;79.8
41230;BME280;26964;50.428;19.218;2023-02-21T03:40:30;1011.1;;;6.5;79.7
41230;BME280;26964;50.428;19.218;2023-02-21T03:45:30;1011.2;;;6.5;80.2
41230;BME280;26964;50.428;19.218;2023-02-21T03:50:29;1011.3;;;6.5;80.0
41230;BME280;26964;50.428;19.218;2023-02-21T03:55:29;1011.3;;;6.5;80.5
41230;BME280;26964;50.428;19.218;2023-02-21T04:00:30;1011.3;;;6.5;80.5
41230;BME280;26964;50.428;19.218;2023-02-21T04:05:29;1011.4;;;6.5;80.7
41230;BME280;26964;50.428;19.218;2023-02-21T04:10:29;1011.4;;;6.5;81.4
41230;BME280;26964;50.428;19.218;2023-02-21T04:15:30;1011.4;;;6.5;81.0
41230;BME280;26964;50.428;19.218;2023-02-21T04:20:30;1011.4;;;6.5;80.9
41230;BME280;26964;50.428;19.218;2023-02-21T04:25:29;1011.4;;;6.4;81.1
41230;BME280;26964;50.428;19.218;2023-02-21T04:30:29;1011.4;;;6.4;81.3
41230;BME280;26964;50.428;19.218;2023-02-21T04:35:29;1011.3;;;6.4;81.3
41230;BME280;26964;50.428;19.218;2023-02-21T04:40:29;1011.3;;;6.4;81.2
41230;BME280;26964;50.428;19.218;2023-02-21T04:45:30;1011.3;;;6.4;81.5
41230;BME280;26964;50.428;19.218;2023-02-21T04:50:29;1011.2;;;6.4;81.4
41230;BME280;26964;50.428;19.218;2023-02-21T04:55:30;1011.2;;;6.4;81.4
41230;BME280;26964;50.428;19.218;2023-02-21T05:00:29;1011.3;;;6.4;81.5
41230;BME280;26964;50.428;19.218;2023-02-21T05:05:30;1011.3;;;6.4;81.9
41230;BME280;26964;50.428;19.218;2023-02-21T05:10:29;1011.2;;;6.4;81.8
41230;BME280;26964;50.428;19.218;2023-02-21T05:15:29;1011.2;;;6.4;81.8
41230;BME280;26964;50.428;19.218;2023-02-21T05:20:30;1011.1;;;6.4;81.7
41230;BME280;26964;50.428;19.218;2023-02-21T05:25:29;1011.1;;;6.4;82.0
41230;BME280;26964;50.428;19.218;2023-02-21T05:30:29;1011.0;;;6.4;82.1
41230;BME280;26964;50.428;19.218;2023-02-21T05:35:30;1011.0;;;6.4;82.3
41230;BME280;26964;50.428;19.218;2023-02-21T05:40:29;1011.2;;;6.4;82.2
41230;BME280;26964;50.428;19.218;2023-02-21T05:45:29;1011.0;;;6.4;82.4
41230;BME280;26964;50.428;19.218;2023-02-21T05:50:29;1011.1;;;6.4;82.6
41230;BME280;26964;50.428;19.218;2023-02-21T05:55:29;1011.1;;;6.4;82.4
41230;BME280;26964;50.428;19.218;2023-02-21T06:00:29;1011.3;;;6.4;82.6
41230;BME280;26964;50.428;19.218;2023-02-21T06:05:40;1011.1;;;6.4;82.6
41230;BME280;26964;50.428;19.218;2023-02-21T06:10:40;1011.2;;;6.5;82.7
41230;BME280;26964;50.428;19.218;2023-02-21T06:15:30;1011.3;;;6.5;82.8
41230;BME280;26964;50.428;19.218;2023-02-21T06:20:30;1011.2;;;6.5;83.0
41230;BME280;26964;50.428;19.218;2023-02-21T06:25:30;1011.3;;;6.6;82.9
41230;BME280;26964;50.428;19.218;2023-02-21T06:30:30;1011.4;;;6.6;83.0
41230;BME280;26964;50.428;19.218;2023-02-21T06:35:30;1011.7;;;6.6;83.1
41230;BME280;26964;50.428;19.218;2023-02-21T06:40:30;1011.5;;;6.6;83.3
41230;BME280;26964;50.428;19.218;2023-02-21T06:45:29;1011.6;;;6.6;83.5
41230;BME280;26964;50.428;19.218;2023-02-21T06:50:29;1011.6;;;6.6;83.3
41230;BME280;26964;50.428;19.218;2023-02-21T06:55:29;1011.6;;;6.7;83.4
41230;BME280;26964;50.428;19.218;2023-02-21T07:00:30;1011.6;;;6.7;83.4
41230;BME280;26964;50.428;19.218;2023-02-21T07:05:30;1011.7;;;6.8;83.4
41230;BME280;26964;50.428;19.218;2023-02-21T07:10:29;1011.7;;;6.8;83.5
41230;BME280;26964;50.428;19.218;2023-02-21T07:15:29;1011.8;;;6.8;83.6
41230;BME280;26964;50.428;19.218;2023-02-21T07:20:29;1011.9;;;6.9;83.5
41230;BME280;26964;50.428;19.218;2023-02-21T07:25:29;1011.9;;;6.9;83.6
41230;BME280;26964;50.428;19.218;2023-02-21T07:30:29;1011.9;;;6.9;83.6
41230;BME280;26964;50.428;19.218;2023-02-21T07:35:30;1011.8;;;6.9;83.6
41230;BME280;26964;50.428;19.218;2023-02-21T07:40:29;1011.8;;;6.9;84.0
41230;BME280;26964;50.428;19.218;2023-02-21T07:45:29;1011.8;;;7.0;83.7
41230;BME280;26964;50.428;19.218;2023-02-21T07:50:29;1011.9;;;7.1;84.1
41230;BME280;26964;50.428;19.218;2023-02-21T07:55:29;1011.9;;;7.1;84.0
41230;BME280;26964;50.428;19.218;2023-02-21T08:00:29;1012.0;;;7.1;83.9
41230;BME280;26964;50.428;19.218;2023-02-21T08:05:30;1012.0;;;7.1;84.0
41230;BME280;26964;50.428;19.218;2023-02-21T08:10:28;1012.0;;;7.2;84.2
41230;BME280;26964;50.428;19.218;2023-02-21T08:15:30;1012.1;;;7.2;84.1
41230;BME280;26964;50.428;19.218;2023-02-21T08:20:29;1012.0;;;7.2;84.1
41230;BME280;26964;50.428;19.218;2023-02-21T08:25:29;1012.1;;;7.2;84.3
41230;BME280;26964;50.428;19.218;2023-02-21T08:30:30;1012.2;;;7.3;84.3
41230;BME280;26964;50.428;19.218;2023-02-21T08:35:28;1012.2;;;7.4;84.4
41230;BME280;26964;50.428;19.218;2023-02-21T08:40:30;1012.3;;;7.4;84.3
41230;BME280;26964;50.428;19.218;2023-02-21T08:45:29;1012.3;;;7.5;84.2
41230;BME280;26964;50.428;19.218;2023-02-21T08:50:29;1012.4;;;7.5;84.2
41230;BME280;26964;50.428;19.218;2023-02-21T08:55:29;1012.4;;;7.5;84.2
41230;BME280;26964;50.428;19.218;2023-02-21T09:00:31;1012.4;;;7.5;84.1
41230;BME280;26964;50.428;19.218;2023-02-21T09:05:30;1012.4;;;7.6;84.0
41230;BME280;26964;50.428;19.218;2023-02-21T09:10:30;1012.4;;;7.6;84.1
41230;BME280;26964;50.428;19.218;2023-02-21T09:15:29;1012.6;;;7.7;84.1
41230;BME280;26964;50.428;19.218;2023-02-21T09:20:29;1012.6;;;7.8;84.0
41230;BME280;26964;50.428;19.218;2023-02-21T09:25:29;1012.7;;;7.8;83.9
41230;BME280;26964;50.428;19.218;2023-02-21T09:30:29;1012.6;;;7.9;83.7
41230;BME280;26964;50.428;19.218;2023-02-21T09:35:28;1012.5;;;8.0;83.4
41230;BME280;26964;50.428;19.218;2023-02-21T09:40:33;1012.4;;;8.1;83.3
41230;BME280;26964;50.428;19.218;2023-02-21T09:45:31;1012.6;;;8.3;83.1
41230;BME280;26964;50.428;19.218;2023-02-21T09:50:34;1012.7;;;8.6;83.0
41230;BME280;26964;50.428;19.218;2023-02-21T09:55:30;1012.5;;;8.9;82.8
41230;BME280;26964;50.428;19.218;2023-02-21T10:00:34;1012.6;;;9.2;82.3
41230;BME280;26964;50.428;19.218;2023-02-21T10:10:33;1012.7;;;9.2;81.6
41230;BME280;26964;50.428;19.218;2023-02-21T10:20:33;1013.0;;;8.9;81.7
41230;BME280;26964;50.428;19.218;2023-02-21T10:25:30;1012.9;;;8.6;81.7
41230;BME280;26964;50.428;19.218;2023-02-21T10:30:33;1013.0;;;8.3;81.9
41230;BME280;26964;50.428;19.218;2023-02-21T10:35:29;1013.1;;;8.1;82.1
41230;BME280;26964;50.428;19.218;2023-02-21T10:40:33;1013.2;;;8.1;82.4
41230;BME280;26964;50.428;19.218;2023-02-21T10:45:33;1013.2;;;8.0;82.6
41230;BME280;26964;50.428;19.218;2023-02-21T10:55:28;1013.1;;;7.9;82.7
41230;BME280;26964;50.428;19.218;2023-02-21T11:00:31;1013.1;;;7.9;82.8
41230;BME280;26964;50.428;19.218;2023-02-21T11:05:28;1013.2;;;7.9;82.8
41230;BME280;26964;50.428;19.218;2023-02-21T11:10:31;1013.1;;;7.9;82.9
41230;BME280;26964;50.428;19.218;2023-02-21T11:15:28;1013.1;;;7.9;82.8
41230;BME280;26964;50.428;19.218;2023-02-21T11:20:29;1013.1;;;7.9;82.9
41230;BME280;26964;50.428;19.218;2023-02-21T11:25:30;1013.1;;;7.9;82.8
41230;BME280;26964;50.428;19.218;2023-02-21T11:30:30;1013.3;;;7.9;83.0
41230;BME280;26964;50.428;19.218;2023-02-21T11:35:33;1013.2;;;7.9;83.3
41230;BME280;26964;50.428;19.218;2023-02-21T11:40:33;1013.2;;;7.9;83.2
41230;BME280;26964;50.428;19.218;2023-02-21T11:45:29;1013.2;;;7.9;83.3
41230;BME280;26964;50.428;19.218;2023-02-21T11:50:32;1013.4;;;7.9;83.3
41230;BME280;26964;50.428;19.218;2023-02-21T11:55:28;1013.4;;;7.9;83.2
41230;BME280;26964;50.428;19.218;2023-02-21T12:05:36;1013.3;;;7.9;83.4
41230;BME280;26964;50.428;19.218;2023-02-21T12:15:34;1013.6;;;8.3;83.9
41230;BME280;26964;50.428;19.218;2023-02-21T12:25:34;1013.4;;;8.8;83.5
41230;BME280;26964;50.428;19.218;2023-02-21T12:40:33;1013.3;;;8.9;82.2
41230;BME280;26964;50.428;19.218;2023-02-21T12:50:30;1013.1;;;8.9;81.5
41230;BME280;26964;50.428;19.218;2023-02-21T12:55:32;1013.1;;;8.9;81.9
41230;BME280;26964;50.428;19.218;2023-02-21T13:00:33;1013.1;;;9.1;81.8
41230;BME280;26964;50.428;19.218;2023-02-21T13:05:35;1013.2;;;9.3;81.7
41230;BME280;26964;50.428;19.218;2023-02-21T13:10:33;1013.2;;;9.5;81.3
41230;BME280;26964;50.428;19.218;2023-02-21T13:15:29;1013.2;;;9.4;81.0
41230;BME280;26964;50.428;19.218;2023-02-21T13:20:34;1013.2;;;9.4;81.1
41230;BME280;26964;50.428;19.218;2023-02-21T13:35:31;1013.3;;;9.1;80.3
41230;BME280;26964;50.428;19.218;2023-02-21T13:40:31;1013.4;;;8.9;80.6
41230;BME280;26964;50.428;19.218;2023-02-21T13:45:29;1013.4;;;8.8;80.8
41230;BME280;26964;50.428;19.218;2023-02-21T13:55:30;1013.5;;;8.8;81.0
41230;BME280;26964;50.428;19.218;2023-02-21T14:20:29;1013.5;;;8.7;80.7
41230;BME280;26964;50.428;19.218;2023-02-21T14:25:32;1013.6;;;8.7;80.8
41230;BME280;26964;50.428;19.218;2023-02-21T14:30:32;1013.6;;;8.7;80.9
41230;BME280;26964;50.428;19.218;2023-02-21T14:35:32;1013.5;;;8.8;80.9
41230;BME280;26964;50.428;19.218;2023-02-21T14:40:34;1013.5;;;8.9;80.7
41230;BME280;26964;50.428;19.218;2023-02-21T15:00:33;1013.7;;;9.0;79.8
41230;BME280;26964;50.428;19.218;2023-02-21T15:05:33;1013.8;;;9.0;79.3
41230;BME280;26964;50.428;19.218;2023-02-21T15:10:30;1013.8;;;8.9;79.1
41230;BME280;26964;50.428;19.218;2023-02-21T15:15:30;1013.8;;;8.8;78.6
41230;BME280;26964;50.428;19.218;2023-02-21T15:20:28;1013.8;;;8.8;78.8
41230;BME280;26964;50.428;19.218;2023-02-21T15:25:28;1014.0;;;8.8;78.8
41230;BME280;26964;50.428;19.218;2023-02-21T15:30:32;1013.9;;;8.7;78.7
41230;BME280;26964;50.428;19.218;2023-02-21T15:35:31;1014.0;;;8.7;78.2
41230;BME280;26964;50.428;19.218;2023-02-21T15:40:28;1014.0;;;8.7;78.3
41230;BME280;26964;50.428;19.218;2023-02-21T15:45:30;1014.1;;;8.6;78.3
41230;BME280;26964;50.428;19.218;2023-02-21T15:50:31;1014.1;;;8.5;78.1
41230;BME280;26964;50.428;19.218;2023-02-21T15:55:29;1014.2;;;8.4;78.2
41230;BME280;26964;50.428;19.218;2023-02-21T16:00:30;1014.3;;;8.3;78.2
41230;BME280;26964;50.428;19.218;2023-02-21T16:05:29;1014.3;;;8.2;77.7
41230;BME280;26964;50.428;19.218;2023-02-21T16:10:28;1014.4;;;8.1;78.0
41230;BME280;26964;50.428;19.218;2023-02-21T16:15:29;1014.5;;;8.0;78.0
41230;BME280;26964;50.428;19.218;2023-02-21T16:20:32;1014.5;;;7.9;77.8
41230;BME280;26964;50.428;19.218;2023-02-21T16:25:28;1014.6;;;7.9;77.8
41230;BME280;26964;50.428;19.218;2023-02-21T16:30:29;1014.7;;;7.8;77.7
41230;BME280;26964;50.428;19.218;2023-02-21T16:35:28;1014.8;;;7.7;77.8
41230;BME280;26964;50.428;19.218;2023-02-21T16:40:30;1014.8;;;7.6;77.8
41230;BME280;26964;50.428;19.218;2023-02-21T16:45:28;1014.8;;;7.6;77.8
41230;BME280;26964;50.428;19.218;2023-02-21T16:50:30;1014.9;;;7.5;77.7
41230;BME280;26964;50.428;19.218;2023-02-21T16:55:28;1014.9;;;7.5;77.8
41230;BME280;26964;50.428;19.218;2023-02-21T17:00:30;1015.1;;;7.4;77.8
41230;BME280;26964;50.428;19.218;2023-02-21T17:05:28;1015.1;;;7.4;77.8
41230;BME280;26964;50.428;19.218;2023-02-21T17:10:28;1015.2;;;7.3;77.7
41230;BME280;26964;50.428;19.218;2023-02-21T17:15:28;1015.2;;;7.2;77.7
41230;BME280;26964;50.428;19.218;2023-02-21T17:20:29;1015.3;;;7.2;77.6
41230;BME280;26964;50.428;19.218;2023-02-21T17:25:28;1015.4;;;7.1;77.7
41230;BME280;26964;50.428;19.218;2023-02-21T17:30:28;1015.5;;;7.0;77.7
41230;BME280;26964;50.428;19.218;2023-02-21T17:35:28;1015.5;;;6.9;77.8
41230;BME280;26964;50.428;19.218;2023-02-21T17:40:29;1015.7;;;6.9;77.7
41230;BME280;26964;50.428;19.218;2023-02-21T17:45:28;1015.8;;;6.8;77.8
41230;BME280;26964;50.428;19.218;2023-02-21T17:50:28;1015.8;;;6.8;77.8
41230;BME280;26964;50.428;19.218;2023-02-21T17:55:28;1015.7;;;6.8;77.5
41230;BME280;26964;50.428;19.218;2023-02-21T18:00:28;1015.9;;;6.8;77.5
41230;BME280;26964;50.428;19.218;2023-02-21T18:05:29;1016.0;;;6.7;77.2
41230;BME280;26964;50.428;19.218;2023-02-21T18:10:28;1016.0;;;6.6;77.3
41230;BME280;26964;50.428;19.218;2023-02-21T18:15:27;1016.2;;;6.6;77.2
41230;BME280;26964;50.428;19.218;2023-02-21T18:20:29;1016.2;;;6.5;76.9
41230;BME280;26964;50.428;19.218;2023-02-21T18:25:29;1016.2;;;6.4;76.7
41230;BME280;26964;50.428;19.218;2023-02-21T18:30:28;1016.2;;;6.3;77.0
41230;BME280;26964;50.428;19.218;2023-02-21T18:35:28;1016.3;;;6.3;76.9
41230;BME280;26964;50.428;19.218;2023-02-21T18:40:28;1016.4;;;6.2;76.9
41230;BME280;26964;50.428;19.218;2023-02-21T18:45:28;1016.3;;;6.2;76.9
41230;BME280;26964;50.428;19.218;2023-02-21T18:50:28;1016.4;;;6.1;76.7
41230;BME280;26964;50.428;19.218;2023-02-21T18:55:28;1016.5;;;6.0;76.9
41230;BME280;26964;50.428;19.218;2023-02-21T19:00:29;1016.5;;;6.0;76.9
41230;BME280;26964;50.428;19.218;2023-02-21T19:10:29;1016.6;;;5.9;76.9
41230;BME280;26964;50.428;19.218;2023-02-21T19:15:28;1016.8;;;5.9;76.9
41230;BME280;26964;50.428;19.218;2023-02-21T19:20:28;1016.8;;;5.8;76.6
41230;BME280;26964;50.428;19.218;2023-02-21T19:25:27;1016.9;;;5.8;76.7
41230;BME280;26964;50.428;19.218;2023-02-21T19:30:29;1016.8;;;5.8;76.5
41230;BME280;26964;50.428;19.218;2023-02-21T19:35:29;1016.9;;;5.7;76.5
41230;BME280;26964;50.428;19.218;2023-02-21T19:40:29;1017.0;;;5.7;76.6
41230;BME280;26964;50.428;19.218;2023-02-21T19:45:28;1017.0;;;5.7;76.6
41230;BME280;26964;50.428;19.218;2023-02-21T19:50:28;1017.1;;;5.6;76.5
41230;BME280;26964;50.428;19.218;2023-02-21T19:55:28;1017.1;;;5.6;76.5
41230;BME280;26964;50.428;19.218;2023-02-21T20:00:28;1017.2;;;5.6;76.4
41230;BME280;26964;50.428;19.218;2023-02-21T20:05:28;1017.2;;;5.5;76.4
41230;BME280;26964;50.428;19.218;2023-02-21T20:10:27;1017.2;;;5.5;76.4
41230;BME280;26964;50.428;19.218;2023-02-21T20:15:28;1017.3;;;5.4;76.4
41230;BME280;26964;50.428;19.218;2023-02-21T20:20:28;1017.2;;;5.4;76.4
41230;BME280;26964;50.428;19.218;2023-02-21T20:25:28;1017.2;;;5.4;76.4
41230;BME280;26964;50.428;19.218;2023-02-21T20:30:28;1017.2;;;5.3;76.3
41230;BME280;26964;50.428;19.218;2023-02-21T20:35:28;1017.4;;;5.3;76.3
41230;BME280;26964;50.428;19.218;2023-02-21T20:40:28;1017.4;;;5.3;76.3
41230;BME280;26964;50.428;19.218;2023-02-21T20:45:28;1017.4;;;5.3;76.2
41230;BME280;26964;50.428;19.218;2023-02-21T20:50:28;1017.4;;;5.3;76.2
41230;BME280;26964;50.428;19.218;2023-02-21T20:55:28;1017.4;;;5.2;76.2
41230;BME280;26964;50.428;19.218;2023-02-21T21:00:28;1017.3;;;5.2;76.2
41230;BME280;26964;50.428;19.218;2023-02-21T21:05:28;1017.3;;;5.2;76.2
41230;BME280;26964;50.428;19.218;2023-02-21T21:10:28;1017.4;;;5.1;76.2
41230;BME280;26964;50.428;19.218;2023-02-21T21:15:28;1017.4;;;5.1;76.2
41230;BME280;26964;50.428;19.218;2023-02-21T21:20:28;1017.6;;;5.0;76.2
41230;BME280;26964;50.428;19.218;2023-02-21T21:25:28;1017.5;;;5.0;76.3
41230;BME280;26964;50.428;19.218;2023-02-21T21:30:27;1017.5;;;5.0;76.3
41230;BME280;26964;50.428;19.218;2023-02-21T21:35:27;1017.6;;;4.9;76.3
41230;BME280;26964;50.428;19.218;2023-02-21T21:40:28;1017.7;;;4.9;76.3
41230;BME280;26964;50.428;19.218;2023-02-21T21:45:28;1017.7;;;4.8;76.3
41230;BME280;26964;50.428;19.218;2023-02-21T21:50:28;1017.7;;;4.8;76.4
41230;BME280;26964;50.428;19.218;2023-02-21T21:55:28;1017.6;;;4.8;76.4
41230;BME280;26964;50.428;19.218;2023-02-21T22:00:29;1017.7;;;4.7;76.3
41230;BME280;26964;50.428;19.218;2023-02-21T22:05:29;1017.8;;;4.6;76.4
41230;BME280;26964;50.428;19.218;2023-02-21T22:10:28;1017.9;;;4.6;76.4
41230;BME280;26964;50.428;19.218;2023-02-21T22:15:28;1017.9;;;4.5;76.5
41230;BME280;26964;50.428;19.218;2023-02-21T22:20:28;1017.9;;;4.4;76.4
41230;BME280;26964;50.428;19.218;2023-02-21T22:25:28;1017.9;;;4.4;76.4
41230;BME280;26964;50.428;19.218;2023-02-21T22:30:28;1018.0;;;4.3;76.5
41230;BME280;26964;50.428;19.218;2023-02-21T22:35:28;1018.1;;;4.3;76.5
41230;BME280;26964;50.428;19.218;2023-02-21T22:40:29;1018.0;;;4.2;76.6
41230;BME280;26964;50.428;19.218;2023-02-21T22:45:32;1018.1;;;4.2;76.6
41230;BME280;26964;50.428;19.218;2023-02-21T22:50:29;1018.1;;;4.2;76.6
41230;BME280;26964;50.428;19.218;2023-02-21T22:55:28;1018.1;;;4.2;76.6
41230;BME280;26964;50.428;19.218;2023-02-21T23:00:29;1018.3;;;4.2;76.7
41230;BME280;26964;50.428;19.218;2023-02-21T23:05:27;1018.2;;;4.1;76.7
41230;BME280;26964;50.428;19.218;2023-02-21T23:10:27;1018.2;;;4.1;76.8
41230;BME280;26964;50.428;19.218;2023-02-21T23:15:27;1018.2;;;4.2;76.8
41230;BME280;26964;50.428;19.218;2023-02-21T23:20:28;1018.3;;;4.2;76.8
41230;BME280;26964;50.428;19.218;2023-02-21T23:25:29;1018.3;;;4.2;76.8
41230;BME280;26964;50.428;19.218;2023-02-21T23:30:27;1018.3;;;4.2;76.8
41230;BME280;26964;50.428;19.218;2023-02-21T23:35:28;1018.3;;;4.2;76.8
41230;BME280;26964;50.428;19.218;2023-02-21T23:40:27;1018.3;;;4.2;76.8
41230;BME280;26964;50.428;19.218;2023-02-21T23:45:27;1018.3;;;4.2;76.8
41230;BME280;26964;50.428;19.218;2023-02-21T23:50:28;1018.3;;;4.1;76.8
41230;BME280;26964;50.428;19.218;2023-02-21T23:55:28;1018.3;;;4.1;76.8
